sensor_id;sensor_type;location;lat;lon;timestamp;pressure;altitude;pressure_sealevel;temperature;humidity
28626;BME280;18905;42.668;23.364;2023-04-06T00:02:01;94760.66;;;-0.24;100.00
28626;BME280;18905;42.668;23.364;2023-04-06T00:04:26;94682.81;;;-0.49;100.00
28626;BME280;18905;42.668;23.364;2023-04-06T00:06:52;94747.78;;;0.10;100.00
28626;BME280;18905;42.668;23.364;2023-04-06T00:09:17;94810.84;;;0.60;100.00
28626;BME280;18905;42.668;23.364;2023-04-06T00:11:43;94830.00;;;0.67;100.00
28626;BME280;18905;42.668;23.364;2023-04-06T00:14:08;94754.38;;;0.03;100.00
28626;BME280;18905;42.668;23.364;2023-04-06T00:16:34;94744.88;;;0.17;100.00
28626;BME280;18905;42.668;23.364;2023-04-06T00:19:00;94739.19;;;-0.12;100.00
28626;BME280;18905;42.668;23.364;2023-04-06T00:21:25;94820.66;;;0.59;100.00
28626;BME280;18905;42.668;23.364;2023-04-06T00:23:51;94826.50;;;0.56;100.00
28626;BME280;18905;42.668;23.364;2023-04-06T00:26:16;94816.66;;;0.62;100.00
28626;BME280;18905;42.668;23.364;2023-04-06T00:28:42;94815.31;;;0.54;100.00
28626;BME280;18905;42.668;23.364;2023-04-06T00:31:07;94756.81;;;0.19;100.00
28626;BME280;18905;42.668;23.364;2023-04-06T00:33:33;94804.94;;;0.47;100.00
28626;BME280;18905;42.668;23.364;2023-04-06T00:35:58;94730.53;;;0.17;100.00
28626;BME280;18905;42.668;23.364;2023-04-06T00:38:23;94724.97;;;0.29;100.00
28626;BME280;18905;42.668;23.364;2023-04-06T00:40:49;94807.66;;;0.63;100.00
28626;BME280;18905;42.668;23.364;2023-04-06T00:43:15;94759.78;;;0.38;100.00
28626;BME280;18905;42.668;23.364;2023-04-06T00:45:41;94724.72;;;0.26;100.00
28626;BME280;18905;42.668;23.364;2023-04-06T00:48:07;94806.63;;;0.84;100.00
28626;BME280;18905;42.668;23.364;2023-04-06T00:50:33;94797.03;;;0.58;100.00
28626;BME280;18905;42.668;23.364;2023-04-06T00:52:58;94701.34;;;0.28;100.00
28626;BME280;18905;42.668;23.364;2023-04-06T00:55:26;94761.94;;;0.56;100.00
28626;BME280;18905;42.668;23.364;2023-04-06T00:57:51;94710.88;;;0.08;100.00
28626;BME280;18905;42.668;23.364;2023-04-06T01:00:17;94736.34;;;0.14;100.00
28626;BME280;18905;42.668;23.364;2023-04-06T01:02:43;94719.41;;;0.26;100.00
28626;BME280;18905;42.668;23.364;2023-04-06T01:05:10;94760.63;;;0.53;100.00
28626;BME280;18905;42.668;23.364;2023-04-06T01:07:36;94694.69;;;0.25;100.00
28626;BME280;18905;42.668;23.364;2023-04-06T01:10:08;94782.19;;;0.82;100.00
28626;BME280;18905;42.668;23.364;2023-04-06T01:12:34;94709.53;;;0.11;100.00
28626;BME280;18905;42.668;23.364;2023-04-06T01:14:59;94795.72;;;0.90;100.00
28626;BME280;18905;42.668;23.364;2023-04-06T01:17:25;94794.69;;;1.01;100.00
28626;BME280;18905;42.668;23.364;2023-04-06T01:19:50;94710.66;;;0.45;100.00
28626;BME280;18905;42.668;23.364;2023-04-06T01:22:19;94781.91;;;1.08;100.00
28626;BME280;18905;42.668;23.364;2023-04-06T01:24:45;94685.66;;;0.16;100.00
28626;BME280;18905;42.668;23.364;2023-04-06T01:27:10;94780.03;;;0.84;100.00
28626;BME280;18905;42.668;23.364;2023-04-06T01:29:36;94782.19;;;0.97;100.00
28626;BME280;18905;42.668;23.364;2023-04-06T01:32:02;94679.31;;;0.42;100.00
28626;BME280;18905;42.668;23.364;2023-04-06T01:34:27;94744.41;;;0.55;100.00
28626;BME280;18905;42.668;23.364;2023-04-06T01:36:53;94735.38;;;0.71;100.00
28626;BME280;18905;42.668;23.364;2023-04-06T01:39:19;94744.97;;;0.92;100.00
28626;BME280;18905;42.668;23.364;2023-04-06T01:41:44;94680.66;;;0.35;100.00
28626;BME280;18905;42.668;23.364;2023-04-06T01:44:12;94751.63;;;0.64;100.00
28626;BME280;18905;42.668;23.364;2023-04-06T01:46:38;94722.34;;;0.54;100.00
28626;BME280;18905;42.668;23.364;2023-04-06T01:49:03;94771.56;;;1.02;100.00
28626;BME280;18905;42.668;23.364;2023-04-06T01:51:28;94717.84;;;0.50;100.00
28626;BME280;18905;42.668;23.364;2023-04-06T01:53:55;94732.75;;;0.76;100.00
28626;BME280;18905;42.668;23.364;2023-04-06T01:56:20;94700.06;;;0.65;100.00
28626;BME280;18905;42.668;23.364;2023-04-06T01:58:46;94740.72;;;0.81;100.00
28626;BME280;18905;42.668;23.364;2023-04-06T02:01:11;94665.50;;;0.25;100.00
28626;BME280;18905;42.668;23.364;2023-04-06T02:03:37;94732.19;;;0.59;100.00
28626;BME280;18905;42.668;23.364;2023-04-06T02:06:02;94669.47;;;0.28;100.00
28626;BME280;18905;42.668;23.364;2023-04-06T02:08:28;94723.97;;;0.80;100.00
28626;BME280;18905;42.668;23.364;2023-04-06T02:10:54;94727.94;;;0.93;100.00
28626;BME280;18905;42.668;23.364;2023-04-06T02:13:19;94717.34;;;0.68;100.00
28626;BME280;18905;42.668;23.364;2023-04-06T02:15:45;94666.31;;;0.56;100.00
28626;BME280;18905;42.668;23.364;2023-04-06T02:18:10;94656.19;;;0.28;100.00
28626;BME280;18905;42.668;23.364;2023-04-06T02:20:36;94704.56;;;0.65;100.00
28626;BME280;18905;42.668;23.364;2023-04-06T02:23:01;94734.31;;;1.02;100.00
28626;BME280;18905;42.668;23.364;2023-04-06T02:25:27;94662.06;;;0.40;100.00
28626;BME280;18905;42.668;23.364;2023-04-06T02:27:53;94745.75;;;1.22;100.00
28626;BME280;18905;42.668;23.364;2023-04-06T02:30:18;94654.09;;;0.70;100.00
28626;BME280;18905;42.668;23.364;2023-04-06T02:32:44;94662.06;;;0.70;100.00
28626;BME280;18905;42.668;23.364;2023-04-06T02:35:09;94688.34;;;0.91;100.00
28626;BME280;18905;42.668;23.364;2023-04-06T02:37:35;94713.06;;;1.07;100.00
28626;BME280;18905;42.668;23.364;2023-04-06T02:40:00;94715.75;;;0.82;100.00
28626;BME280;18905;42.668;23.364;2023-04-06T02:42:26;94666.84;;;0.47;100.00
28626;BME280;18905;42.668;23.364;2023-04-06T02:44:51;94637.63;;;0.32;100.00
28626;BME280;18905;42.668;23.364;2023-04-06T02:47:17;94742.31;;;1.07;100.00
28626;BME280;18905;42.668;23.364;2023-04-06T02:49:42;94644.25;;;0.25;100.00
28626;BME280;18905;42.668;23.364;2023-04-06T02:52:08;94743.91;;;0.88;100.00
28626;BME280;18905;42.668;23.364;2023-04-06T02:54:33;94735.94;;;0.88;100.00
28626;BME280;18905;42.668;23.364;2023-04-06T02:56:59;94653.81;;;0.31;100.00
28626;BME280;18905;42.668;23.364;2023-04-06T02:59:24;94741.53;;;1.06;100.00
28626;BME280;18905;42.668;23.364;2023-04-06T03:01:50;94743.34;;;1.16;100.00
28626;BME280;18905;42.668;23.364;2023-04-06T03:04:16;94631.50;;;0.57;100.00
28626;BME280;18905;42.668;23.364;2023-04-06T03:06:41;94743.63;;;1.29;100.00
28626;BME280;18905;42.668;23.364;2023-04-06T03:09:07;94699.25;;;0.80;100.00
28626;BME280;18905;42.668;23.364;2023-04-06T03:11:32;94748.16;;;1.19;100.00
28626;BME280;18905;42.668;23.364;2023-04-06T03:13:58;94664.69;;;0.75;100.00
28626;BME280;18905;42.668;23.364;2023-04-06T03:16:24;94739.41;;;0.93;100.00
28626;BME280;18905;42.668;23.364;2023-04-06T03:18:50;94721.06;;;0.92;100.00
28626;BME280;18905;42.668;23.364;2023-04-06T03:21:15;94710.16;;;0.98;100.00
28626;BME280;18905;42.668;23.364;2023-04-06T03:23:41;94705.09;;;0.87;100.00
28626;BME280;18905;42.668;23.364;2023-04-06T03:26:07;94738.56;;;0.98;100.00
28626;BME280;18905;42.668;23.364;2023-04-06T03:28:32;94705.91;;;0.87;100.00
28626;BME280;18905;42.668;23.364;2023-04-06T03:30:58;94682.75;;;0.93;100.00
28626;BME280;18905;42.668;23.364;2023-04-06T03:33:24;94742.19;;;3.69;100.00
28626;BME280;18905;42.668;23.364;2023-04-06T03:35:52;94739.88;;;5.85;100.00
28626;BME280;18905;42.668;23.364;2023-04-06T03:38:18;94736.41;;;3.34;100.00
28626;BME280;18905;42.668;23.364;2023-04-06T03:40:43;94735.41;;;2.53;100.00
28626;BME280;18905;42.668;23.364;2023-04-06T03:43:09;94684.41;;;1.77;100.00
28626;BME280;18905;42.668;23.364;2023-04-06T03:45:35;94647.88;;;1.29;100.00
28626;BME280;18905;42.668;23.364;2023-04-06T03:48:00;94625.88;;;1.04;100.00
28626;BME280;18905;42.668;23.364;2023-04-06T03:50:26;94708.50;;;1.42;100.00
28626;BME280;18905;42.668;23.364;2023-04-06T03:52:51;94734.56;;;1.40;100.00
28626;BME280;18905;42.668;23.364;2023-04-06T03:55:17;94644.50;;;0.79;100.00
28626;BME280;18905;42.668;23.364;2023-04-06T03:57:42;94643.19;;;0.76;100.00
28626;BME280;18905;42.668;23.364;2023-04-06T04:00:08;94646.09;;;0.80;100.00
28626;BME280;18905;42.668;23.364;2023-04-06T04:02:34;94711.72;;;1.19;100.00
28626;BME280;18905;42.668;23.364;2023-04-06T04:04:59;94702.00;;;1.73;100.00
28626;BME280;18905;42.668;23.364;2023-04-06T04:07:25;94743.38;;;2.09;100.00
28626;BME280;18905;42.668;23.364;2023-04-06T04:09:50;94732.94;;;1.49;100.00
28626;BME280;18905;42.668;23.364;2023-04-06T04:12:16;94747.06;;;1.45;100.00
28626;BME280;18905;42.668;23.364;2023-04-06T04:14:42;94724.41;;;1.57;100.00
28626;BME280;18905;42.668;23.364;2023-04-06T04:17:07;94644.47;;;1.14;100.00
28626;BME280;18905;42.668;23.364;2023-04-06T04:19:33;94681.13;;;1.17;100.00
28626;BME280;18905;42.668;23.364;2023-04-06T04:21:58;94715.16;;;1.40;100.00
28626;BME280;18905;42.668;23.364;2023-04-06T04:24:24;94655.09;;;1.09;100.00
28626;BME280;18905;42.668;23.364;2023-04-06T04:26:49;94697.53;;;1.49;100.00
28626;BME280;18905;42.668;23.364;2023-04-06T04:29:15;94666.00;;;1.12;100.00
28626;BME280;18905;42.668;23.364;2023-04-06T04:31:41;94744.56;;;1.78;100.00
28626;BME280;18905;42.668;23.364;2023-04-06T04:34:07;94744.88;;;1.62;100.00
28626;BME280;18905;42.668;23.364;2023-04-06T04:36:32;94746.75;;;1.56;100.00
28626;BME280;18905;42.668;23.364;2023-04-06T04:38:58;94658.03;;;1.07;100.00
28626;BME280;18905;42.668;23.364;2023-04-06T04:41:26;94648.19;;;1.08;100.00
28626;BME280;18905;42.668;23.364;2023-04-06T04:43:52;94738.19;;;1.74;100.00
28626;BME280;18905;42.668;23.364;2023-04-06T04:46:17;94638.59;;;1.22;100.00
28626;BME280;18905;42.668;23.364;2023-04-06T04:48:43;94716.19;;;1.44;100.00
28626;BME280;18905;42.668;23.364;2023-04-06T04:51:08;94655.91;;;0.99;100.00
28626;BME280;18905;42.668;23.364;2023-04-06T04:53:34;94737.97;;;1.56;100.00
28626;BME280;18905;42.668;23.364;2023-04-06T04:55:59;94732.28;;;1.87;100.00
28626;BME280;18905;42.668;23.364;2023-04-06T04:58:25;94678.97;;;1.34;100.00
28626;BME280;18905;42.668;23.364;2023-04-06T05:00:50;94642.53;;;1.39;100.00
28626;BME280;18905;42.668;23.364;2023-04-06T05:03:23;94661.22;;;1.19;100.00
28626;BME280;18905;42.668;23.364;2023-04-06T05:05:49;94649.69;;;1.39;100.00
28626;BME280;18905;42.668;23.364;2023-04-06T05:08:15;94651.88;;;1.12;100.00
28626;BME280;18905;42.668;23.364;2023-04-06T05:10:42;94680.81;;;1.43;100.00
28626;BME280;18905;42.668;23.364;2023-04-06T05:13:07;94731.59;;;1.57;100.00
28626;BME280;18905;42.668;23.364;2023-04-06T05:15:33;94661.44;;;1.28;100.00
28626;BME280;18905;42.668;23.364;2023-04-06T05:18:04;94649.28;;;0.97;100.00
28626;BME280;18905;42.668;23.364;2023-04-06T05:20:30;94738.00;;;1.51;100.00
28626;BME280;18905;42.668;23.364;2023-04-06T05:22:55;94682.75;;;1.18;100.00
28626;BME280;18905;42.668;23.364;2023-04-06T05:25:21;94667.31;;;1.15;100.00
28626;BME280;18905;42.668;23.364;2023-04-06T05:27:46;94604.69;;;0.64;100.00
28626;BME280;18905;42.668;23.364;2023-04-06T05:30:12;94753.34;;;1.79;100.00
28626;BME280;18905;42.668;23.364;2023-04-06T05:32:38;94639.13;;;1.19;100.00
28626;BME280;18905;42.668;23.364;2023-04-06T05:35:03;94668.09;;;1.25;100.00
28626;BME280;18905;42.668;23.364;2023-04-06T05:37:29;94693.34;;;1.33;100.00
28626;BME280;18905;42.668;23.364;2023-04-06T05:39:55;94731.00;;;1.70;100.00
28626;BME280;18905;42.668;23.364;2023-04-06T05:42:22;94697.84;;;1.42;100.00
28626;BME280;18905;42.668;23.364;2023-04-06T05:44:47;94720.38;;;1.70;100.00
28626;BME280;18905;42.668;23.364;2023-04-06T05:47:13;94658.47;;;1.39;100.00
28626;BME280;18905;42.668;23.364;2023-04-06T05:49:38;94709.22;;;1.63;100.00
28626;BME280;18905;42.668;23.364;2023-04-06T05:52:04;94649.72;;;1.29;100.00
28626;BME280;18905;42.668;23.364;2023-04-06T05:54:29;94641.19;;;1.37;100.00
28626;BME280;18905;42.668;23.364;2023-04-06T05:56:55;94745.75;;;2.16;100.00
28626;BME280;18905;42.668;23.364;2023-04-06T05:59:20;94653.94;;;1.45;100.00
28626;BME280;18905;42.668;23.364;2023-04-06T06:01:46;94741.47;;;2.20;100.00
28626;BME280;18905;42.668;23.364;2023-04-06T06:04:11;94678.78;;;1.84;100.00
28626;BME280;18905;42.668;23.364;2023-04-06T06:06:37;94658.09;;;1.71;100.00
28626;BME280;18905;42.668;23.364;2023-04-06T06:09:02;94735.59;;;2.23;100.00
28626;BME280;18905;42.668;23.364;2023-04-06T06:11:29;94630.53;;;1.42;100.00
28626;BME280;18905;42.668;23.364;2023-04-06T06:13:55;94700.59;;;1.96;100.00
28626;BME280;18905;42.668;23.364;2023-04-06T06:16:21;94647.94;;;1.78;100.00
28626;BME280;18905;42.668;23.364;2023-04-06T06:18:46;94643.56;;;1.48;100.00
28626;BME280;18905;42.668;23.364;2023-04-06T06:21:12;94643.25;;;1.60;100.00
28626;BME280;18905;42.668;23.364;2023-04-06T06:23:38;94716.59;;;1.81;100.00
28626;BME280;18905;42.668;23.364;2023-04-06T06:26:04;94633.38;;;1.65;100.00
28626;BME280;18905;42.668;23.364;2023-04-06T06:28:30;94740.41;;;2.64;100.00
28626;BME280;18905;42.668;23.364;2023-04-06T06:30:55;94720.31;;;2.77;100.00
28626;BME280;18905;42.668;23.364;2023-04-06T06:33:21;94642.69;;;2.55;100.00
28626;BME280;18905;42.668;23.364;2023-04-06T06:35:46;94638.09;;;2.22;100.00
28626;BME280;18905;42.668;23.364;2023-04-06T06:38:12;94696.38;;;2.72;100.00
28626;BME280;18905;42.668;23.364;2023-04-06T06:40:37;94691.97;;;2.91;100.00
28626;BME280;18905;42.668;23.364;2023-04-06T06:43:02;94745.66;;;3.41;100.00
28626;BME280;18905;42.668;23.364;2023-04-06T06:45:28;94732.03;;;3.14;100.00
28626;BME280;18905;42.668;23.364;2023-04-06T06:47:54;94673.53;;;2.61;100.00
28626;BME280;18905;42.668;23.364;2023-04-06T06:50:20;94655.38;;;3.25;100.00
28626;BME280;18905;42.668;23.364;2023-04-06T06:52:46;94732.59;;;3.92;100.00
28626;BME280;18905;42.668;23.364;2023-04-06T06:55:11;94734.94;;;4.40;100.00
28626;BME280;18905;42.668;23.364;2023-04-06T06:57:37;94680.31;;;3.86;100.00
28626;BME280;18905;42.668;23.364;2023-04-06T07:00:04;94590.03;;;3.22;100.00
28626;BME280;18905;42.668;23.364;2023-04-06T07:02:30;94685.69;;;4.04;100.00
28626;BME280;18905;42.668;23.364;2023-04-06T07:04:56;94638.41;;;3.63;100.00
28626;BME280;18905;42.668;23.364;2023-04-06T07:07:22;94586.63;;;3.40;100.00
28626;BME280;18905;42.668;23.364;2023-04-06T07:09:48;94586.34;;;3.84;100.00
28626;BME280;18905;42.668;23.364;2023-04-06T07:12:13;94606.59;;;3.19;100.00
28626;BME280;18905;42.668;23.364;2023-04-06T07:14:39;94638.59;;;3.90;100.00
28626;BME280;18905;42.668;23.364;2023-04-06T07:17:07;94656.00;;;4.80;100.00
28626;BME280;18905;42.668;23.364;2023-04-06T07:19:34;94565.56;;;4.82;100.00
28626;BME280;18905;42.668;23.364;2023-04-06T07:21:59;94644.97;;;4.68;99.88
28626;BME280;18905;42.668;23.364;2023-04-06T07:24:27;94626.94;;;4.60;100.00
28626;BME280;18905;42.668;23.364;2023-04-06T07:27:02;94563.53;;;4.60;97.30
28626;BME280;18905;42.668;23.364;2023-04-06T07:29:29;94731.75;;;6.44;91.22
28626;BME280;18905;42.668;23.364;2023-04-06T07:32:00;94565.41;;;4.92;92.94
28626;BME280;18905;42.668;23.364;2023-04-06T07:34:27;94667.63;;;6.07;88.04
28626;BME280;18905;42.668;23.364;2023-04-06T07:36:54;94665.50;;;6.31;85.68
28626;BME280;18905;42.668;23.364;2023-04-06T07:39:24;94632.34;;;4.87;88.93
28626;BME280;18905;42.668;23.364;2023-04-06T07:41:56;94636.28;;;5.80;92.21
28626;BME280;18905;42.668;23.364;2023-04-06T07:44:50;94732.56;;;6.04;88.45
28626;BME280;18905;42.668;23.364;2023-04-06T07:47:36;94685.59;;;4.70;93.07
28626;BME280;18905;42.668;23.364;2023-04-06T07:50:04;94725.75;;;4.83;95.94
28626;BME280;18905;42.668;23.364;2023-04-06T07:52:59;94561.06;;;4.32;94.78
28626;BME280;18905;42.668;23.364;2023-04-06T07:55:26;94668.78;;;5.47;88.76
28626;BME280;18905;42.668;23.364;2023-04-06T07:58:39;94673.31;;;6.54;86.65
28626;BME280;18905;42.668;23.364;2023-04-06T08:01:08;94646.69;;;6.44;80.42
28626;BME280;18905;42.668;23.364;2023-04-06T08:03:59;94687.06;;;6.26;82.58
28626;BME280;18905;42.668;23.364;2023-04-06T08:06:56;94570.78;;;5.73;79.59
28626;BME280;18905;42.668;23.364;2023-04-06T08:09:25;94619.59;;;6.10;80.38
28626;BME280;18905;42.668;23.364;2023-04-06T08:12:32;94562.44;;;6.59;78.47
28626;BME280;18905;42.668;23.364;2023-04-06T08:15:00;94726.47;;;7.76;72.98
28626;BME280;18905;42.668;23.364;2023-04-06T08:17:28;94697.16;;;7.66;72.23
28626;BME280;18905;42.668;23.364;2023-04-06T08:20:06;94663.28;;;7.26;74.72
28626;BME280;18905;42.668;23.364;2023-04-06T08:22:38;94625.78;;;6.33;76.14
28626;BME280;18905;42.668;23.364;2023-04-06T08:25:49;94560.97;;;5.95;79.10
28626;BME280;18905;42.668;23.364;2023-04-06T08:28:36;94626.28;;;6.92;74.72
28626;BME280;18905;42.668;23.364;2023-04-06T08:31:29;94675.72;;;7.74;69.03
28626;BME280;18905;42.668;23.364;2023-04-06T08:34:02;94574.25;;;6.36;74.54
28626;BME280;18905;42.668;23.364;2023-04-06T08:36:50;94561.69;;;5.20;80.28
28626;BME280;18905;42.668;23.364;2023-04-06T08:39:53;94724.84;;;7.44;75.22
28626;BME280;18905;42.668;23.364;2023-04-06T08:42:39;94672.97;;;7.66;70.26
28626;BME280;18905;42.668;23.364;2023-04-06T08:45:08;94586.88;;;7.32;70.59
28626;BME280;18905;42.668;23.364;2023-04-06T08:47:36;94705.16;;;7.05;69.87
28626;BME280;18905;42.668;23.364;2023-04-06T08:50:10;94718.50;;;8.32;66.54
28626;BME280;18905;42.668;23.364;2023-04-06T08:53:10;94619.75;;;6.27;71.23
28626;BME280;18905;42.668;23.364;2023-04-06T08:55:48;94692.69;;;7.31;67.31
28626;BME280;18905;42.668;23.364;2023-04-06T08:58:56;94572.91;;;6.25;72.55
28626;BME280;18905;42.668;23.364;2023-04-06T09:01:30;94645.00;;;6.84;70.30
28626;BME280;18905;42.668;23.364;2023-04-06T09:08:03;94548.69;;;5.40;73.74
28626;BME280;18905;42.668;23.364;2023-04-06T09:11:10;94658.22;;;7.02;70.92
28626;BME280;18905;42.668;23.364;2023-04-06T09:14:07;94556.41;;;6.18;67.06
28626;BME280;18905;42.668;23.364;2023-04-06T09:16:45;94625.41;;;7.27;64.84
28626;BME280;18905;42.668;23.364;2023-04-06T09:19:22;94575.47;;;7.65;63.51
28626;BME280;18905;42.668;23.364;2023-04-06T09:22:09;94710.22;;;9.18;61.68
28626;BME280;18905;42.668;23.364;2023-04-06T09:25:00;94713.44;;;8.22;65.44
28626;BME280;18905;42.668;23.364;2023-04-06T09:27:59;94674.03;;;7.04;64.64
28626;BME280;18905;42.668;23.364;2023-04-06T09:30:58;94659.25;;;6.93;68.94
28626;BME280;18905;42.668;23.364;2023-04-06T09:33:51;94544.28;;;6.34;71.41
28626;BME280;18905;42.668;23.364;2023-04-06T09:43:22;94551.69;;;6.59;69.39
28626;BME280;18905;42.668;23.364;2023-04-06T09:45:53;94624.34;;;7.45;69.14
28626;BME280;18905;42.668;23.364;2023-04-06T09:48:53;94705.72;;;8.07;69.98
28626;BME280;18905;42.668;23.364;2023-04-06T09:54:18;94692.28;;;8.37;65.01
28626;BME280;18905;42.668;23.364;2023-04-06T10:00:26;94549.63;;;7.08;65.79
28626;BME280;18905;42.668;23.364;2023-04-06T10:03:43;94704.19;;;8.79;63.25
28626;BME280;18905;42.668;23.364;2023-04-06T10:06:12;94703.25;;;8.19;64.30
28626;BME280;18905;42.668;23.364;2023-04-06T10:08:42;94711.56;;;8.39;60.86
28626;BME280;18905;42.668;23.364;2023-04-06T10:11:43;94556.06;;;7.29;62.50
28626;BME280;18905;42.668;23.364;2023-04-06T10:14:18;94708.81;;;7.53;62.54
28626;BME280;18905;42.668;23.364;2023-04-06T10:21:11;94704.69;;;7.86;63.10
28626;BME280;18905;42.668;23.364;2023-04-06T10:28:48;94552.25;;;6.69;62.57
28626;BME280;18905;42.668;23.364;2023-04-06T10:31:50;94624.31;;;6.84;63.38
28626;BME280;18905;42.668;23.364;2023-04-06T10:34:18;94554.56;;;6.05;62.26
28626;BME280;18905;42.668;23.364;2023-04-06T10:37:13;94584.84;;;7.07;61.52
28626;BME280;18905;42.668;23.364;2023-04-06T10:40:18;94572.63;;;7.70;60.89
28626;BME280;18905;42.668;23.364;2023-04-06T10:46:26;94702.22;;;7.37;62.38
28626;BME280;18905;42.668;23.364;2023-04-06T10:49:22;94580.09;;;6.60;64.23
28626;BME280;18905;42.668;23.364;2023-04-06T10:52:00;94573.91;;;7.03;63.37
28626;BME280;18905;42.668;23.364;2023-04-06T10:55:00;94532.59;;;6.82;63.88
28626;BME280;18905;42.668;23.364;2023-04-06T10:58:16;94557.47;;;7.35;62.39
28626;BME280;18905;42.668;23.364;2023-04-06T11:00:48;94693.75;;;7.52;61.62
28626;BME280;18905;42.668;23.364;2023-04-06T11:03:55;94562.56;;;7.37;61.77
28626;BME280;18905;42.668;23.364;2023-04-06T11:12:53;94684.22;;;7.15;66.59
28626;BME280;18905;42.668;23.364;2023-04-06T11:28:58;94540.97;;;6.81;64.28
28626;BME280;18905;42.668;23.364;2023-04-06T11:32:27;94507.00;;;5.75;65.71
28626;BME280;18905;42.668;23.364;2023-04-06T11:35:43;94668.25;;;7.10;65.48
28626;BME280;18905;42.668;23.364;2023-04-06T11:38:22;94677.19;;;7.28;63.68
28626;BME280;18905;42.668;23.364;2023-04-06T11:41:03;94528.72;;;6.44;64.74
28626;BME280;18905;42.668;23.364;2023-04-06T11:43:57;94539.50;;;6.31;64.85
28626;BME280;18905;42.668;23.364;2023-04-06T11:46:56;94622.78;;;6.92;64.82
28626;BME280;18905;42.668;23.364;2023-04-06T11:56:41;94663.28;;;7.26;64.13
28626;BME280;18905;42.668;23.364;2023-04-06T12:11:57;94642.31;;;6.13;71.30
28626;BME280;18905;42.668;23.364;2023-04-06T12:21:05;94467.88;;;4.71;73.38
28626;BME280;18905;42.668;23.364;2023-04-06T12:24:04;94582.69;;;5.40;74.30
28626;BME280;18905;42.668;23.364;2023-04-06T12:27:29;94647.38;;;6.14;73.20
28626;BME280;18905;42.668;23.364;2023-04-06T12:30:34;94500.00;;;4.98;73.10
28626;BME280;18905;42.668;23.364;2023-04-06T12:33:56;94565.22;;;5.15;74.18
28626;BME280;18905;42.668;23.364;2023-04-06T12:37:21;94495.66;;;5.29;72.81
28626;BME280;18905;42.668;23.364;2023-04-06T12:40:18;94653.06;;;6.48;70.05
28626;BME280;18905;42.668;23.364;2023-04-06T12:42:54;94562.44;;;6.01;70.74
28626;BME280;18905;42.668;23.364;2023-04-06T12:45:27;94610.41;;;6.60;67.80
28626;BME280;18905;42.668;23.364;2023-04-06T12:48:02;94515.09;;;5.97;67.77
28626;BME280;18905;42.668;23.364;2023-04-06T12:51:01;94629.50;;;6.10;71.29
28626;BME280;18905;42.668;23.364;2023-04-06T12:53:36;94587.06;;;5.76;70.73
28626;BME280;18905;42.668;23.364;2023-04-06T12:56:09;94557.78;;;5.66;70.17
28626;BME280;18905;42.668;23.364;2023-04-06T12:58:37;94537.84;;;5.05;71.97
28626;BME280;18905;42.668;23.364;2023-04-06T13:01:06;94536.09;;;5.41;71.57
28626;BME280;18905;42.668;23.364;2023-04-06T13:03:32;94473.25;;;5.11;70.96
28626;BME280;18905;42.668;23.364;2023-04-06T13:05:59;94632.69;;;5.98;73.10
28626;BME280;18905;42.668;23.364;2023-04-06T13:08:25;94464.72;;;4.96;72.25
28626;BME280;18905;42.668;23.364;2023-04-06T13:10:51;94560.75;;;5.92;70.53
28626;BME280;18905;42.668;23.364;2023-04-06T13:13:25;94585.44;;;6.16;69.29
28626;BME280;18905;42.668;23.364;2023-04-06T13:15:52;94540.59;;;5.94;68.58
28626;BME280;18905;42.668;23.364;2023-04-06T13:18:18;94543.66;;;6.01;69.46
28626;BME280;18905;42.668;23.364;2023-04-06T13:20:43;94616.00;;;6.50;69.15
28626;BME280;18905;42.668;23.364;2023-04-06T13:23:09;94566.09;;;6.05;70.57
28626;BME280;18905;42.668;23.364;2023-04-06T13:25:34;94532.28;;;5.69;71.43
28626;BME280;18905;42.668;23.364;2023-04-06T13:28:00;94594.34;;;6.25;70.04
28626;BME280;18905;42.668;23.364;2023-04-06T13:30:26;94541.94;;;5.70;69.64
28626;BME280;18905;42.668;23.364;2023-04-06T13:32:51;94599.94;;;6.01;71.22
28626;BME280;18905;42.668;23.364;2023-04-06T13:35:17;94539.41;;;6.00;70.89
28626;BME280;18905;42.668;23.364;2023-04-06T13:37:43;94609.66;;;6.11;70.00
28626;BME280;18905;42.668;23.364;2023-04-06T13:40:09;94566.63;;;5.94;69.27
28626;BME280;18905;42.668;23.364;2023-04-06T13:42:34;94566.56;;;6.21;69.39
28626;BME280;18905;42.668;23.364;2023-04-06T13:45:00;94581.81;;;6.20;66.13
28626;BME280;18905;42.668;23.364;2023-04-06T13:47:26;94613.09;;;6.25;67.35
28626;BME280;18905;42.668;23.364;2023-04-06T13:49:53;94549.72;;;6.29;65.67
28626;BME280;18905;42.668;23.364;2023-04-06T13:52:19;94588.53;;;6.89;65.05
28626;BME280;18905;42.668;23.364;2023-04-06T13:54:45;94552.28;;;6.56;63.39
28626;BME280;18905;42.668;23.364;2023-04-06T13:57:11;94606.69;;;6.70;63.00
28626;BME280;18905;42.668;23.364;2023-04-06T13:59:38;94604.59;;;6.45;62.13
28626;BME280;18905;42.668;23.364;2023-04-06T14:02:05;94567.03;;;6.23;61.81
28626;BME280;18905;42.668;23.364;2023-04-06T14:04:30;94602.97;;;6.57;62.16
28626;BME280;18905;42.668;23.364;2023-04-06T14:06:57;94606.53;;;6.31;63.24
28626;BME280;18905;42.668;23.364;2023-04-06T14:09:22;94508.91;;;5.47;63.58
28626;BME280;18905;42.668;23.364;2023-04-06T14:11:48;94545.59;;;5.60;64.04
28626;BME280;18905;42.668;23.364;2023-04-06T14:14:14;94532.59;;;5.54;63.93
28626;BME280;18905;42.668;23.364;2023-04-06T14:16:40;94554.28;;;5.79;63.75
28626;BME280;18905;42.668;23.364;2023-04-06T14:19:06;94605.78;;;6.17;61.43
28626;BME280;18905;42.668;23.364;2023-04-06T14:21:32;94598.44;;;6.09;61.50
28626;BME280;18905;42.668;23.364;2023-04-06T14:23:57;94603.88;;;6.17;61.96
28626;BME280;18905;42.668;23.364;2023-04-06T14:26:23;94505.97;;;5.35;63.19
28626;BME280;18905;42.668;23.364;2023-04-06T14:28:48;94599.88;;;5.93;62.78
28626;BME280;18905;42.668;23.364;2023-04-06T14:31:14;94604.13;;;5.94;63.37
28626;BME280;18905;42.668;23.364;2023-04-06T14:33:41;94519.91;;;5.46;63.42
28626;BME280;18905;42.668;23.364;2023-04-06T14:36:12;94594.59;;;5.61;63.46